createdAt,value
2022-09-07T00:00:59.475Z,1012.03
2022-09-07T00:01:59.427Z,1011.99
2022-09-07T00:02:59.457Z,1012.00
2022-09-07T00:03:59.456Z,1011.98
2022-09-07T00:04:59.401Z,1011.97
2022-09-07T00:05:59.399Z,1011.95
2022-09-07T00:06:59.377Z,1011.96
2022-09-07T00:07:59.362Z,1011.89
2022-09-07T00:08:59.355Z,1011.90
2022-09-07T00:09:59.340Z,1011.81
2022-09-07T00:10:59.346Z,1011.79
2022-09-07T00:11:59.328Z,1011.78
2022-09-07T00:12:59.310Z,1011.73
2022-09-07T00:13:59.296Z,1011.72
2022-09-07T00:14:59.297Z,1011.73
2022-09-07T00:15:59.378Z,1011.72
2022-09-07T00:16:59.268Z,1011.67
2022-09-07T00:17:59.256Z,1011.66
2022-09-07T00:18:59.271Z,1011.63
2022-09-07T00:19:59.230Z,1011.63
2022-09-07T00:20:59.236Z,1011.59
2022-09-07T00:21:59.210Z,1011.61
2022-09-07T00:22:59.200Z,1011.64
2022-09-07T00:23:59.187Z,1011.66
2022-09-07T00:24:59.179Z,1011.68
2022-09-07T00:25:59.178Z,1011.70
2022-09-07T00:26:59.158Z,1011.74
2022-09-07T00:27:59.143Z,1011.76
2022-09-07T00:28:59.137Z,1011.72
2022-09-07T00:29:59.123Z,1011.72
2022-09-07T00:30:59.155Z,1011.68
2022-09-07T00:31:59.099Z,1011.67
2022-09-07T00:32:59.090Z,1011.58
2022-09-07T00:33:59.087Z,1011.61
2022-09-07T00:34:59.069Z,1011.58
2022-09-07T00:35:59.064Z,1011.59
2022-09-07T00:36:59.045Z,1011.58
2022-09-07T00:37:59.034Z,1011.61
2022-09-07T00:38:59.022Z,1011.63
2022-09-07T00:39:59.072Z,1011.63
2022-09-07T00:40:59.013Z,1011.60
2022-09-07T00:41:58.992Z,1011.63
2022-09-07T00:42:58.981Z,1011.59
2022-09-07T00:43:58.967Z,1011.58
2022-09-07T00:44:58.958Z,1011.61
2022-09-07T00:45:58.958Z,1011.58
2022-09-07T00:46:58.964Z,1011.63
2022-09-07T00:47:58.928Z,1011.59
2022-09-07T00:48:58.911Z,1011.63
2022-09-07T00:49:58.902Z,1011.60
2022-09-07T00:50:58.908Z,1011.62
2022-09-07T00:51:58.888Z,1011.60
2022-09-07T00:52:58.870Z,1011.66
2022-09-07T00:53:58.855Z,1011.67
2022-09-07T00:54:58.848Z,1011.64
2022-09-07T00:55:58.926Z,1011.63
2022-09-07T00:56:58.827Z,1011.60
2022-09-07T00:57:58.812Z,1011.58
2022-09-07T00:58:58.803Z,1011.55
2022-09-07T00:59:58.788Z,1011.56
2022-09-07T01:00:58.794Z,1011.55
2022-09-07T01:01:58.887Z,1011.55
2022-09-07T01:02:58.977Z,1011.52
2022-09-07T01:03:58.744Z,1011.56
2022-09-07T01:04:58.745Z,1011.58
2022-09-07T01:05:58.724Z,1011.57
2022-09-07T01:06:58.717Z,1011.58
2022-09-07T01:07:58.701Z,1011.59
2022-09-07T01:08:58.692Z,1011.54
2022-09-07T01:09:58.688Z,1011.52
2022-09-07T01:10:58.669Z,1011.49
2022-09-07T01:11:58.657Z,1011.47
2022-09-07T01:12:58.652Z,1011.45
2022-09-07T01:13:58.634Z,1011.54
2022-09-07T01:14:58.635Z,1011.49
2022-09-07T01:15:58.632Z,1011.44
2022-09-07T01:16:58.613Z,1011.48
2022-09-07T01:17:58.592Z,1011.49
2022-09-07T01:18:58.584Z,1011.52
2022-09-07T01:19:58.581Z,1011.51
2022-09-07T01:20:58.566Z,1011.53
2022-09-07T01:21:58.546Z,1011.50
2022-09-07T01:22:58.537Z,1011.51
2022-09-07T01:23:58.526Z,1011.49
2022-09-07T01:24:58.527Z,1011.47
2022-09-07T01:25:58.503Z,1011.45
2022-09-07T01:26:58.493Z,1011.45
2022-09-07T01:27:58.486Z,1011.45
2022-09-07T01:28:58.470Z,1011.43
2022-09-07T01:29:58.473Z,1011.43
2022-09-07T01:30:58.503Z,1011.44
2022-09-07T01:31:58.439Z,1011.41
2022-09-07T01:32:58.428Z,1011.42
2022-09-07T01:33:58.413Z,1011.42
2022-09-07T01:34:58.422Z,1011.43
2022-09-07T01:35:58.393Z,1011.42
2022-09-07T01:36:58.384Z,1011.41
2022-09-07T01:37:58.379Z,1011.47
2022-09-07T01:38:58.364Z,1011.45
2022-09-07T01:39:58.429Z,1011.42
2022-09-07T01:40:58.341Z,1011.41
2022-09-07T01:41:58.330Z,1011.39
2022-09-07T01:42:58.317Z,1011.39
2022-09-07T01:43:58.304Z,1011.32
2022-09-07T01:44:58.407Z,1011.30
2022-09-07T01:45:58.300Z,1011.26
2022-09-07T01:46:58.276Z,1011.24
2022-09-07T01:47:58.297Z,1011.29
2022-09-07T01:48:58.259Z,1011.30
2022-09-07T01:49:58.255Z,1011.32
2022-09-07T01:50:58.230Z,1011.32
2022-09-07T01:51:58.252Z,1011.35
2022-09-07T01:52:58.225Z,1011.39
2022-09-07T01:53:58.200Z,1011.41
2022-09-07T01:54:58.249Z,1011.36
2022-09-07T01:55:58.174Z,1011.35
2022-09-07T01:56:58.178Z,1011.36
2022-09-07T01:57:58.155Z,1011.31
2022-09-07T01:58:58.142Z,1011.35
2022-09-07T01:59:58.139Z,1011.36
2022-09-07T02:00:58.130Z,1011.41
2022-09-07T02:01:58.170Z,1011.39
2022-09-07T02:02:58.209Z,1011.39
2022-09-07T02:03:58.084Z,1011.34
2022-09-07T02:04:58.090Z,1011.36
2022-09-07T02:05:58.063Z,1011.37
2022-09-07T02:06:58.054Z,1011.36
2022-09-07T02:07:58.044Z,1011.34
2022-09-07T02:08:58.033Z,1011.34
2022-09-07T02:09:58.031Z,1011.32
2022-09-07T02:10:58.019Z,1011.29
2022-09-07T02:11:58.001Z,1011.28
2022-09-07T02:12:57.984Z,1011.29
2022-09-07T02:13:57.978Z,1011.29
2022-09-07T02:14:57.985Z,1011.33
2022-09-07T02:15:58.065Z,1011.31
2022-09-07T02:16:57.948Z,1011.31
2022-09-07T02:17:57.932Z,1011.29
2022-09-07T02:18:57.920Z,1011.27
2022-09-07T02:19:57.921Z,1011.27
2022-09-07T02:20:57.899Z,1011.26
2022-09-07T02:21:57.892Z,1011.30
2022-09-07T02:22:57.879Z,1011.30
2022-09-07T02:23:57.866Z,1011.29
2022-09-07T02:24:57.864Z,1011.26
2022-09-07T02:25:57.845Z,1011.22
2022-09-07T02:26:57.832Z,1011.26
2022-09-07T02:27:57.821Z,1011.27
2022-09-07T02:28:57.810Z,1011.25
2022-09-07T02:29:57.810Z,1011.24
2022-09-07T02:30:57.829Z,1011.26
2022-09-07T02:31:57.779Z,1011.25
2022-09-07T02:32:57.765Z,1011.27
2022-09-07T02:33:57.760Z,1011.23
2022-09-07T02:34:57.758Z,1011.28
2022-09-07T02:35:57.732Z,1011.29
2022-09-07T02:36:57.725Z,1011.28
2022-09-07T02:37:57.717Z,1011.25
2022-09-07T02:38:57.704Z,1011.29
2022-09-07T02:39:57.766Z,1011.27
2022-09-07T02:40:57.682Z,1011.26
2022-09-07T02:41:57.670Z,1011.28
2022-09-07T02:42:57.657Z,1011.25
2022-09-07T02:43:57.647Z,1011.21
2022-09-07T02:44:57.654Z,1011.21
2022-09-07T02:45:57.703Z,1011.18
2022-09-07T02:46:57.618Z,1011.16
2022-09-07T02:47:57.603Z,1011.18
2022-09-07T02:48:57.605Z,1011.14
2022-09-07T02:49:57.592Z,1011.18
2022-09-07T02:50:57.576Z,1011.19
2022-09-07T02:51:57.565Z,1011.16
2022-09-07T02:52:57.548Z,1011.13
2022-09-07T02:53:57.537Z,1011.13
2022-09-07T02:54:57.539Z,1011.08
2022-09-07T02:55:57.519Z,1011.10
2022-09-07T02:56:57.509Z,1011.10
2022-09-07T02:57:57.492Z,1011.05
2022-09-07T02:58:57.483Z,1011.11
2022-09-07T02:59:57.484Z,1011.08
2022-09-07T03:00:57.464Z,1011.12
2022-09-07T03:01:57.451Z,1011.13
2022-09-07T03:02:57.529Z,1011.17
2022-09-07T03:03:57.429Z,1011.13
2022-09-07T03:04:57.429Z,1011.17
2022-09-07T03:05:57.407Z,1011.11
2022-09-07T03:06:57.403Z,1011.12
2022-09-07T03:07:57.387Z,1011.14
2022-09-07T03:08:57.375Z,1011.14
2022-09-07T03:09:57.370Z,1011.13
2022-09-07T03:10:57.352Z,1011.15
2022-09-07T03:11:57.342Z,1011.10
2022-09-07T03:12:57.332Z,1011.12
2022-09-07T03:13:57.320Z,1011.14
2022-09-07T03:14:57.323Z,1011.12
2022-09-07T03:15:57.363Z,1011.12
2022-09-07T03:16:57.289Z,1011.16
2022-09-07T03:17:57.276Z,1011.16
2022-09-07T03:18:57.265Z,1011.15
2022-09-07T03:19:57.267Z,1011.19
2022-09-07T03:20:57.243Z,1011.18
2022-09-07T03:21:57.230Z,1011.19
2022-09-07T03:22:57.222Z,1011.18
2022-09-07T03:23:57.211Z,1011.22
2022-09-07T03:24:57.208Z,1011.22
2022-09-07T03:25:57.190Z,1011.24
2022-09-07T03:26:57.183Z,1011.21
2022-09-07T03:27:57.167Z,1011.17
2022-09-07T03:28:57.155Z,1011.16
2022-09-07T03:29:57.158Z,1011.17
2022-09-07T03:30:57.259Z,1011.19
2022-09-07T03:31:57.124Z,1011.17
2022-09-07T03:32:57.114Z,1011.13
2022-09-07T03:33:57.104Z,1011.14
2022-09-07T03:34:57.100Z,1011.12
2022-09-07T03:35:57.077Z,1011.08
2022-09-07T03:36:57.070Z,1011.06
2022-09-07T03:37:57.066Z,1011.01
2022-09-07T03:38:57.058Z,1011.02
2022-09-07T03:39:57.192Z,1010.97
2022-09-07T03:40:57.029Z,1010.97
2022-09-07T03:41:57.014Z,1010.93
2022-09-07T03:42:57.003Z,1010.94
2022-09-07T03:43:56.990Z,1010.98
2022-09-07T03:44:56.992Z,1010.96
2022-09-07T03:45:57.009Z,1010.93
2022-09-07T03:46:56.962Z,1010.96
2022-09-07T03:47:56.946Z,1010.94
2022-09-07T03:48:56.935Z,1010.93
2022-09-07T03:49:56.936Z,1010.93
2022-09-07T03:50:56.915Z,1010.93
2022-09-07T03:51:56.924Z,1010.89
2022-09-07T03:52:56.893Z,1010.95
2022-09-07T03:53:56.885Z,1010.95
2022-09-07T03:54:56.881Z,1010.94
2022-09-07T03:55:56.858Z,1010.91
2022-09-07T03:56:56.850Z,1010.85
2022-09-07T03:57:56.838Z,1010.81
2022-09-07T03:58:56.833Z,1010.79
2022-09-07T03:59:56.832Z,1010.78
2022-09-07T04:00:56.908Z,1010.72
2022-09-07T04:01:56.797Z,1010.75
2022-09-07T04:02:56.846Z,1010.71
2022-09-07T04:04:01.319Z,1010.70
2022-09-07T04:04:57.770Z,1010.74
2022-09-07T04:05:56.750Z,1010.67
2022-09-07T04:06:56.741Z,1010.66
2022-09-07T04:07:56.729Z,1010.70
2022-09-07T04:08:56.718Z,1010.69
2022-09-07T04:09:56.717Z,1010.70
2022-09-07T04:10:56.697Z,1010.67
2022-09-07T04:11:56.686Z,1010.66
2022-09-07T04:12:56.676Z,1010.66
2022-09-07T04:13:56.666Z,1010.65
2022-09-07T04:14:56.664Z,1010.64
2022-09-07T04:15:56.647Z,1010.65
2022-09-07T04:16:56.721Z,1010.66
2022-09-07T04:17:56.620Z,1010.69
2022-09-07T04:18:56.609Z,1010.65
2022-09-07T04:19:56.604Z,1010.66
2022-09-07T04:20:56.587Z,1010.62
2022-09-07T04:21:56.576Z,1010.63
2022-09-07T04:22:56.564Z,1010.62
2022-09-07T04:23:56.552Z,1010.66
2022-09-07T04:24:56.556Z,1010.62
2022-09-07T04:25:56.532Z,1010.65
2022-09-07T04:26:56.522Z,1010.67
2022-09-07T04:27:56.511Z,1010.73
2022-09-07T04:28:56.499Z,1010.70
2022-09-07T04:29:56.501Z,1010.69
2022-09-07T04:30:56.515Z,1010.73
2022-09-07T04:31:56.466Z,1010.70
2022-09-07T04:32:56.459Z,1010.71
2022-09-07T04:33:56.442Z,1010.71
2022-09-07T04:34:56.448Z,1010.74
2022-09-07T04:35:56.421Z,1010.78
2022-09-07T04:36:56.412Z,1010.78
2022-09-07T04:37:56.401Z,1010.74
2022-09-07T04:38:56.407Z,1010.66
2022-09-07T04:39:56.425Z,1010.71
2022-09-07T04:40:56.367Z,1010.70
2022-09-07T04:41:56.388Z,1010.67
2022-09-07T04:42:56.345Z,1010.73
2022-09-07T04:43:56.347Z,1010.71
2022-09-07T04:44:56.328Z,1010.70
2022-09-07T04:45:56.374Z,1010.75
2022-09-07T04:46:56.306Z,1010.71
2022-09-07T04:47:56.289Z,1010.70
2022-09-07T04:48:56.288Z,1010.73
2022-09-07T04:49:56.268Z,1010.66
2022-09-07T04:50:56.260Z,1010.69
2022-09-07T04:51:56.245Z,1010.66
2022-09-07T04:52:56.236Z,1010.69
2022-09-07T04:53:56.236Z,1010.60
2022-09-07T04:54:56.221Z,1010.59
2022-09-07T04:55:56.202Z,1010.60
2022-09-07T04:56:56.191Z,1010.59
2022-09-07T04:57:56.192Z,1010.59
2022-09-07T04:58:56.187Z,1010.54
2022-09-07T04:59:56.215Z,1010.60
2022-09-07T05:00:56.185Z,1010.55
2022-09-07T05:01:56.154Z,1010.58
2022-09-07T05:02:56.129Z,1010.58
2022-09-07T05:03:56.125Z,1010.60
2022-09-07T05:04:59.467Z,1010.58
2022-09-07T05:05:57.091Z,1010.55
2022-09-07T05:06:56.082Z,1010.59
2022-09-07T05:07:56.071Z,1010.54
2022-09-07T05:08:56.077Z,1010.57
2022-09-07T05:09:56.049Z,1010.55
2022-09-07T05:10:56.045Z,1010.53
2022-09-07T05:11:56.026Z,1010.55
2022-09-07T05:12:56.019Z,1010.58
2022-09-07T05:13:56.020Z,1010.55
2022-09-07T05:14:56.003Z,1010.55
2022-09-07T05:15:55.983Z,1010.56
2022-09-07T05:16:56.014Z,1010.55
2022-09-07T05:17:55.961Z,1010.54
2022-09-07T05:18:55.964Z,1010.56
2022-09-07T05:19:55.941Z,1010.54
2022-09-07T05:20:55.951Z,1010.56
2022-09-07T05:21:55.925Z,1010.53
2022-09-07T05:22:55.918Z,1010.55
2022-09-07T05:23:55.908Z,1010.55
2022-09-07T05:24:55.889Z,1010.52
2022-09-07T05:25:55.873Z,1010.47
2022-09-07T05:26:55.862Z,1010.50
2022-09-07T05:27:55.851Z,1010.48
2022-09-07T05:31:56.805Z,1010.43
2022-09-07T05:32:55.798Z,1010.42
2022-09-07T05:34:56.776Z,1010.38
2022-09-07T05:35:55.764Z,1010.41
2022-09-07T05:36:55.754Z,1010.39
2022-09-07T05:37:55.752Z,1010.40
2022-09-07T05:38:55.734Z,1010.45
2022-09-07T05:39:55.782Z,1010.45
2022-09-07T05:40:55.712Z,1010.43
2022-09-07T05:41:55.697Z,1010.47
2022-09-07T05:42:55.697Z,1010.49
2022-09-07T05:44:56.666Z,1010.53
2022-09-07T05:45:55.725Z,1010.47
2022-09-07T05:46:55.705Z,1010.45
2022-09-07T05:47:55.647Z,1010.47
2022-09-07T05:48:55.624Z,1010.44
2022-09-07T05:49:57.296Z,1010.46
2022-09-07T05:50:55.608Z,1010.42
2022-09-07T05:51:55.590Z,1010.46
2022-09-07T05:52:55.593Z,1010.48
2022-09-07T05:53:55.567Z,1010.51
2022-09-07T05:55:03.200Z,1010.52
2022-09-07T05:55:56.544Z,1010.50
2022-09-07T05:56:55.536Z,1010.51
2022-09-07T05:57:55.530Z,1010.47
2022-09-07T05:58:55.512Z,1010.52
2022-09-07T05:59:55.500Z,1010.42
2022-09-07T06:00:55.494Z,1010.44
2022-09-07T06:01:55.616Z,1010.45
2022-09-07T06:02:55.574Z,1010.44
2022-09-07T06:03:55.488Z,1010.46
2022-09-07T06:04:55.449Z,1010.51
2022-09-07T06:05:55.437Z,1010.51
2022-09-07T06:07:56.425Z,1010.49
2022-09-07T06:08:55.437Z,1010.54
2022-09-07T06:10:56.409Z,1010.48
2022-09-07T06:11:55.404Z,1010.53
2022-09-07T06:12:55.413Z,1010.58
2022-09-07T06:13:55.350Z,1010.56
2022-09-07T06:14:55.337Z,1010.59
2022-09-07T06:15:55.327Z,1010.56
2022-09-07T06:16:55.353Z,1010.54
2022-09-07T06:17:55.319Z,1010.55
2022-09-07T06:18:55.293Z,1010.53
2022-09-07T06:19:55.281Z,1010.50
2022-09-07T06:20:55.271Z,1010.53
2022-09-07T06:21:55.258Z,1010.52
2022-09-07T06:22:55.279Z,1010.53
2022-09-07T06:23:55.237Z,1010.52
2022-09-07T06:24:55.248Z,1010.57
2022-09-07T06:25:55.215Z,1010.60
2022-09-07T06:26:55.203Z,1010.58
2022-09-07T06:27:55.237Z,1010.54
2022-09-07T06:28:57.931Z,1010.53
2022-09-07T06:29:55.199Z,1010.60
2022-09-07T06:30:55.163Z,1010.57
2022-09-07T06:32:56.153Z,1010.56
2022-09-07T06:33:55.172Z,1010.54
2022-09-07T06:34:55.127Z,1010.48
2022-09-07T06:35:55.107Z,1010.49
2022-09-07T06:36:55.098Z,1010.50
2022-09-07T06:37:55.099Z,1010.51
2022-09-07T06:38:55.073Z,1010.51
2022-09-07T06:39:55.143Z,1010.56
2022-09-07T06:42:55.042Z,1010.52
2022-09-07T06:43:55.018Z,1010.56
2022-09-07T06:44:55.011Z,1010.57
2022-09-07T06:45:55.397Z,1010.54
2022-09-07T06:47:55.986Z,1010.54
2022-09-07T06:48:54.963Z,1010.51
2022-09-07T06:49:54.954Z,1010.55
2022-09-07T06:50:54.944Z,1010.52
2022-09-07T06:51:54.934Z,1010.47
2022-09-07T06:55:54.888Z,1010.45
2022-09-07T06:56:54.881Z,1010.50
2022-09-07T06:57:54.880Z,1010.42
2022-09-07T06:58:54.863Z,1010.38
2022-09-07T06:59:54.847Z,1010.38
2022-09-07T07:00:54.876Z,1010.31
2022-09-07T07:01:54.826Z,1010.34
2022-09-07T07:02:54.891Z,1010.34
2022-09-07T07:03:54.808Z,1010.33
2022-09-07T07:04:54.789Z,1010.26
2022-09-07T07:05:54.790Z,1010.30
2022-09-07T07:06:54.768Z,1010.28
2022-09-07T07:07:54.771Z,1010.30
2022-09-07T07:08:54.746Z,1010.32
2022-09-07T07:09:54.737Z,1010.33
2022-09-07T07:10:54.722Z,1010.36
2022-09-07T07:11:54.712Z,1010.33
2022-09-07T07:12:54.716Z,1010.29
2022-09-07T07:13:54.691Z,1010.28
2022-09-07T07:14:54.682Z,1010.31
2022-09-07T07:15:54.734Z,1010.23
2022-09-07T07:16:54.660Z,1010.24
2022-09-07T07:17:59.089Z,1010.26
2022-09-07T07:18:55.632Z,1010.30
2022-09-07T07:19:54.682Z,1010.28
2022-09-07T07:20:54.616Z,1010.26
2022-09-07T07:22:55.592Z,1010.24
2022-09-07T07:23:54.586Z,1010.22
2022-09-07T07:24:54.574Z,1010.20
2022-09-07T07:25:54.568Z,1010.22
2022-09-07T07:26:54.572Z,1010.26
2022-09-07T07:27:54.884Z,1010.16
2022-09-07T07:29:54.526Z,1010.26
2022-09-07T07:30:54.508Z,1010.21
2022-09-07T07:31:54.514Z,1010.19
2022-09-07T07:32:54.542Z,1010.24
2022-09-07T07:33:54.591Z,1010.26
2022-09-07T07:34:54.472Z,1010.30
2022-09-07T07:35:54.452Z,1010.27
2022-09-07T07:36:54.449Z,1010.31
2022-09-07T07:41:57.572Z,1010.38
2022-09-07T07:42:54.376Z,1010.38
2022-09-07T07:43:54.367Z,1010.38
2022-09-07T07:45:55.351Z,1010.28
2022-09-07T07:46:54.400Z,1010.32
2022-09-07T07:47:54.361Z,1010.21
2022-09-07T07:48:54.396Z,1010.26
2022-09-07T07:50:30.790Z,1010.23
2022-09-07T07:50:55.290Z,1010.17
2022-09-07T07:53:55.569Z,1010.15
2022-09-07T07:54:54.251Z,1010.13
2022-09-07T07:55:54.240Z,1010.12
2022-09-07T07:56:54.247Z,1010.13
2022-09-07T07:57:54.219Z,1010.13
2022-09-07T07:58:54.210Z,1010.18
2022-09-07T07:59:54.196Z,1010.18
2022-09-07T08:00:55.897Z,1010.16
2022-09-07T08:01:54.353Z,1010.18
2022-09-07T08:02:54.232Z,1010.22
2022-09-07T08:03:54.157Z,1010.17
2022-09-07T08:04:54.146Z,1010.20
2022-09-07T08:05:54.147Z,1010.21
2022-09-07T08:06:54.144Z,1010.20
2022-09-07T08:07:54.117Z,1010.21
2022-09-07T08:08:54.143Z,1010.19
2022-09-07T08:09:54.091Z,1010.20
2022-09-07T08:10:54.081Z,1010.28
2022-09-07T08:11:54.100Z,1010.20
2022-09-07T08:12:54.058Z,1010.23
2022-09-07T08:13:54.105Z,1010.18
2022-09-07T08:14:54.037Z,1010.21
2022-09-07T08:15:54.119Z,1010.21
2022-09-07T08:16:54.023Z,1010.18
2022-09-07T08:17:54.011Z,1010.21
2022-09-07T08:18:53.999Z,1010.30
2022-09-07T08:19:53.985Z,1010.26
2022-09-07T08:20:53.975Z,1010.27
2022-09-07T08:21:53.998Z,1010.25
2022-09-07T08:22:53.955Z,1010.28
2022-09-07T08:23:53.942Z,1010.25
2022-09-07T08:24:53.937Z,1010.25
2022-09-07T08:25:53.924Z,1010.27
2022-09-07T08:26:53.925Z,1010.26
2022-09-07T08:27:53.911Z,1010.27
2022-09-07T08:28:53.905Z,1010.24
2022-09-07T08:29:53.880Z,1010.30
2022-09-07T08:30:53.874Z,1010.32
2022-09-07T08:31:53.962Z,1010.32
2022-09-07T08:32:53.848Z,1010.35
2022-09-07T08:33:53.845Z,1010.37
2022-09-07T08:34:53.827Z,1010.40
2022-09-07T08:35:53.821Z,1010.40
2022-09-07T08:36:53.814Z,1010.34
2022-09-07T08:37:53.914Z,1010.35
2022-09-07T08:38:53.791Z,1010.32
2022-09-07T08:39:53.872Z,1010.31
2022-09-07T08:40:53.761Z,1010.27
2022-09-07T08:41:53.765Z,1010.23
2022-09-07T08:42:53.771Z,1010.19
2022-09-07T08:43:53.735Z,1010.20
2022-09-07T08:44:53.726Z,1010.13
2022-09-07T08:45:53.713Z,1010.17
2022-09-07T08:46:53.737Z,1010.15
2022-09-07T08:47:53.703Z,1010.12
2022-09-07T08:48:53.681Z,1010.09
2022-09-07T08:49:53.674Z,1010.11
2022-09-07T08:50:53.690Z,1010.13
2022-09-07T08:51:53.652Z,1010.10
2022-09-07T08:52:53.646Z,1010.10
2022-09-07T08:53:53.646Z,1010.09
2022-09-07T08:54:53.623Z,1010.11
2022-09-07T08:55:53.612Z,1010.10
2022-09-07T08:57:54.602Z,1010.18
2022-09-07T08:58:53.594Z,1010.06
2022-09-07T08:59:53.568Z,1010.02
2022-09-07T09:01:30.793Z,1010.07
2022-09-07T09:05:54.738Z,1009.98
2022-09-07T09:06:53.732Z,1009.96
2022-09-07T09:07:53.505Z,1009.93
2022-09-07T09:08:53.478Z,1009.97
2022-09-07T09:09:53.489Z,1009.94
2022-09-07T09:10:53.464Z,1009.94
2022-09-07T09:11:53.462Z,1009.89
2022-09-07T09:12:53.437Z,1009.96
2022-09-07T09:13:53.428Z,1009.92
2022-09-07T09:14:53.416Z,1009.97
2022-09-07T09:15:53.494Z,1010.01
2022-09-07T09:16:53.410Z,1009.99
2022-09-07T09:17:53.387Z,1010.04
2022-09-07T09:18:53.374Z,1010.02
2022-09-07T09:19:53.368Z,1010.05
2022-09-07T09:20:53.354Z,1010.03
2022-09-07T09:21:53.385Z,1010.05
2022-09-07T09:22:53.333Z,1010.03
2022-09-07T09:23:53.324Z,1010.04
2022-09-07T09:24:53.319Z,1010.02
2022-09-07T09:25:53.331Z,1010.07
2022-09-07T09:26:53.309Z,1010.04
2022-09-07T09:27:53.284Z,1010.04
2022-09-07T09:28:53.278Z,1010.03
2022-09-07T09:29:53.264Z,1010.04
2022-09-07T09:30:53.326Z,1010.03
2022-09-07T09:31:53.265Z,1010.05
2022-09-07T09:32:53.270Z,1009.99
2022-09-07T09:33:53.223Z,1009.98
2022-09-07T09:34:53.213Z,1009.96
2022-09-07T09:35:53.203Z,1010.00
2022-09-07T09:36:53.203Z,1009.98
2022-09-07T09:37:53.186Z,1009.95
2022-09-07T09:38:53.171Z,1009.90
2022-09-07T09:39:55.472Z,1009.89
2022-09-07T09:40:53.151Z,1009.97
2022-09-07T09:41:53.168Z,1010.04
2022-09-07T09:42:53.129Z,1009.93
2022-09-07T09:43:53.121Z,1009.91
2022-09-07T09:44:53.109Z,1009.89
2022-09-07T09:47:54.552Z,1009.86
2022-09-07T09:48:53.067Z,1009.83
2022-09-07T09:49:53.059Z,1009.85
2022-09-07T09:52:54.033Z,1009.77
2022-09-07T09:53:53.019Z,1009.77
2022-09-07T09:54:53.005Z,1009.73
2022-09-07T09:55:52.998Z,1009.70
2022-09-07T09:56:52.994Z,1009.67
2022-09-07T10:00:00.336Z,1009.76
2022-09-07T10:04:52.941Z,1009.64
2022-09-07T10:05:52.895Z,1009.59
2022-09-07T10:06:52.890Z,1009.55
2022-09-07T10:07:52.874Z,1009.54
2022-09-07T10:08:52.865Z,1009.55
2022-09-07T10:09:52.855Z,1009.57
2022-09-07T10:10:52.848Z,1009.63
2022-09-07T10:12:08.742Z,1009.53
2022-09-07T10:12:53.820Z,1009.53
2022-09-07T10:13:52.841Z,1009.44
2022-09-07T10:14:52.803Z,1009.49
2022-09-07T10:15:52.861Z,1009.49
2022-09-07T10:16:52.789Z,1009.49
2022-09-07T10:17:52.771Z,1009.47
2022-09-07T10:18:52.759Z,1009.45
2022-09-07T10:19:52.819Z,1009.46
2022-09-07T10:20:52.742Z,1009.49
2022-09-07T10:21:52.741Z,1009.50
2022-09-07T10:22:52.721Z,1009.48
2022-09-07T10:23:52.709Z,1009.48
2022-09-07T10:24:52.699Z,1009.43
2022-09-07T10:25:52.687Z,1009.44
2022-09-07T10:26:52.685Z,1009.48
2022-09-07T10:27:52.666Z,1009.43
2022-09-07T10:29:08.411Z,1009.45
2022-09-07T10:29:53.662Z,1009.41
2022-09-07T10:30:52.687Z,1009.42
2022-09-07T10:31:52.745Z,1009.49
2022-09-07T10:32:52.650Z,1009.39
2022-09-07T10:34:53.593Z,1009.37
2022-09-07T10:35:52.614Z,1009.39
2022-09-07T10:36:52.578Z,1009.42
2022-09-07T10:37:52.563Z,1009.47
2022-09-07T10:38:52.552Z,1009.44
2022-09-07T10:39:55.815Z,1009.40
2022-09-07T10:40:53.555Z,1009.44
2022-09-07T10:41:52.529Z,1009.38
2022-09-07T10:43:53.496Z,1009.38
2022-09-07T10:44:52.489Z,1009.42
2022-09-07T10:45:52.529Z,1009.38
2022-09-07T10:46:59.661Z,1009.39
2022-09-07T10:47:53.450Z,1009.36
2022-09-07T10:48:52.443Z,1009.37
2022-09-07T10:50:53.421Z,1009.36
2022-09-07T10:51:52.425Z,1009.37
2022-09-07T10:52:52.408Z,1009.43
2022-09-07T10:54:53.376Z,1009.42
2022-09-07T10:55:52.364Z,1009.41
2022-09-07T10:56:52.364Z,1009.39
2022-09-07T10:57:52.354Z,1009.34
2022-09-07T10:59:07.663Z,1009.31
2022-09-07T11:00:09.510Z,1009.29
2022-09-07T11:00:53.309Z,1009.28
2022-09-07T11:01:52.409Z,1009.21
2022-09-07T11:03:53.338Z,1009.22
2022-09-07T11:04:52.266Z,1009.19
2022-09-07T11:05:52.252Z,1009.16
2022-09-07T11:06:52.258Z,1009.14
2022-09-07T11:07:52.232Z,1009.13
2022-09-07T11:09:53.208Z,1009.11
2022-09-07T11:10:52.203Z,1009.09
2022-09-07T11:12:07.640Z,1009.09
2022-09-07T11:12:53.194Z,1009.11
2022-09-07T11:14:12.170Z,1009.14
2022-09-07T11:14:53.151Z,1009.11
2022-09-07T11:15:52.240Z,1009.13
2022-09-07T11:16:52.461Z,1009.14
2022-09-07T11:17:53.189Z,1009.16
2022-09-07T11:18:52.270Z,1009.19
2022-09-07T11:19:52.095Z,1009.20
2022-09-07T11:20:52.088Z,1009.22
2022-09-07T11:21:59.277Z,1009.19
2022-09-07T11:22:53.065Z,1009.23
2022-09-07T11:23:52.051Z,1009.17
2022-09-07T11:25:53.028Z,1009.18
2022-09-07T11:26:52.034Z,1009.19
2022-09-07T11:27:52.006Z,1009.23
2022-09-07T11:29:52.982Z,1009.14
2022-09-07T11:30:53.783Z,1009.12
2022-09-07T11:31:51.973Z,1009.17
2022-09-07T11:32:51.955Z,1009.17
2022-09-07T11:34:52.940Z,1009.20
2022-09-07T11:35:51.917Z,1009.16
2022-09-07T11:36:51.923Z,1009.12
2022-09-07T11:37:51.897Z,1009.12
2022-09-07T11:38:51.886Z,1009.12
2022-09-07T11:39:51.895Z,1009.11
2022-09-07T11:40:51.863Z,1009.09
2022-09-07T11:41:51.863Z,1009.11
2022-09-07T11:42:51.842Z,1009.06
2022-09-07T11:43:51.879Z,1009.07
2022-09-07T11:44:55.660Z,1009.10
2022-09-07T11:45:52.847Z,1009.08
2022-09-07T11:46:51.807Z,1009.07
2022-09-07T11:47:51.788Z,1009.10
2022-09-07T11:48:51.778Z,1009.11
2022-09-07T11:49:54.151Z,1009.14
2022-09-07T11:50:52.752Z,1009.15
2022-09-07T11:51:54.774Z,1009.17
2022-09-07T11:52:54.764Z,1009.13
2022-09-07T11:53:51.719Z,1009.17
2022-09-07T11:54:51.796Z,1009.15
2022-09-07T11:55:51.695Z,1009.22
2022-09-07T11:56:51.701Z,1009.21
2022-09-07T11:57:55.484Z,1009.25
2022-09-07T11:58:51.668Z,1009.20
2022-09-07T11:59:51.652Z,1009.18
2022-09-07T12:00:51.643Z,1009.17
2022-09-07T12:01:51.640Z,1009.15
2022-09-07T12:03:00.496Z,1009.14
2022-09-07T12:03:52.756Z,1009.19
2022-09-07T12:04:56.019Z,1009.13
2022-09-07T12:05:51.600Z,1009.14
2022-09-07T12:06:51.584Z,1009.13
2022-09-07T12:07:51.564Z,1009.14
2022-09-07T12:08:51.551Z,1009.14
2022-09-07T12:09:51.539Z,1009.14
2022-09-07T12:10:51.533Z,1009.10
2022-09-07T12:11:51.529Z,1009.12
2022-09-07T12:12:51.513Z,1009.08
2022-09-07T12:13:51.495Z,1009.06
2022-09-07T12:14:51.486Z,1009.05
2022-09-07T12:15:51.558Z,1009.02
2022-09-07T12:16:51.477Z,1009.02
2022-09-07T12:17:51.455Z,1008.95
2022-09-07T12:18:51.447Z,1008.94
2022-09-07T12:19:51.434Z,1008.98
2022-09-07T12:20:51.424Z,1008.97
2022-09-07T12:21:51.480Z,1008.97
2022-09-07T12:22:51.404Z,1008.97
2022-09-07T12:23:51.388Z,1008.98
2022-09-07T12:24:51.393Z,1008.96
2022-09-07T12:25:51.364Z,1008.90
2022-09-07T12:26:51.373Z,1008.89
2022-09-07T12:27:51.342Z,1008.86
2022-09-07T12:28:51.334Z,1008.84
2022-09-07T12:29:51.322Z,1008.92
2022-09-07T12:30:51.349Z,1008.89
2022-09-07T12:32:00.017Z,1008.86
2022-09-07T12:32:54.528Z,1008.85
2022-09-07T12:33:51.279Z,1008.86
2022-09-07T12:34:51.328Z,1008.83
2022-09-07T12:35:51.272Z,1008.83
2022-09-07T12:36:51.250Z,1008.78
2022-09-07T12:37:51.250Z,1008.82
2022-09-07T12:38:51.226Z,1008.87
2022-09-07T12:39:51.302Z,1008.86
2022-09-07T12:40:51.224Z,1008.85
2022-09-07T12:42:31.806Z,1008.88
2022-09-07T12:42:52.179Z,1008.84
2022-09-07T12:43:51.169Z,1008.81
2022-09-07T12:44:51.245Z,1008.77
2022-09-07T12:45:51.257Z,1008.76
2022-09-07T12:46:51.187Z,1008.77
2022-09-07T12:47:51.129Z,1008.73
2022-09-07T12:48:51.118Z,1008.74
2022-09-07T12:49:51.105Z,1008.76
2022-09-07T12:50:51.174Z,1008.70
2022-09-07T12:52:15.358Z,1008.69
2022-09-07T12:52:52.069Z,1008.72